Decoded Metar for KNRB (MAYPORT NAS in FL, USA) (IATA:NRB) | Meteo·Mobile Aviation Weather
aviador You're here:

KNRB Decoded Metar

MAYPORT NAS in FL, USA
Report Time2018-12-13 10:07:00
UTC Time2018-12-13 10:27:25
Flight Rules vfr VFR
Wind050° at 05 kt
W.Decomp.*RWY 05: 5.0 kt HW 0.3 kt RCW
W.Rank050° ranks 8
Current wind is below 050° avg. (9.5)
Visibility9999 m
Phenomena:N/A
Clouds:Broken 060 Hf
Broken 250 Hf
Expected CloudBase > 1,200 ft AGL from Temp-Dew spread
Ceiling6,000 ft
Temp14°C (ISA -1)
Dew Point11°C (82% RH)
AAT12.5°C
QNH1023 hPa
Density Alt-259 ft
Elevation16 ft
Report Wrong Elevation
Raw Report
SPECI KNRB 131007Z 05005KT 10SM BKN060 BKN250 14/11 A3022 RMK AO2 T01390111
$=

Extra information for KNRB:More info

Metar Taf Metar & Taf Last 4 Metars F.Rules Stats Wind Profile Meteogram Temp Stats Airport Information Weather charts Add Link Nearby VenuesMetar ALERT Operation Metar Decoded Social comments

AIRNAV info for KNRB